Time;durP1;ratioP1;P1;durP2;ratioP2;P2;SDS_P1;SDS_P2;PMS_P1;PMS_P2;Temp;Humidity;BMP_temperature;BMP_pressure;BME280_temperature;BME280_humidity;BME280_pressure;Samples;Min_cycle;Max_cycle;Signal;HPM_P1;HPM_P2
2023/07/02 00:01:00;;;;;;;1.27;1.00;;;24.70;81.20;;;;;;4972387;29;20485;-95
2023/07/02 00:03:27;;;;;;;1.30;1.20;;;24.70;81.20;;;;;;4971784;29;20461;-96
2023/07/02 00:05:56;;;;;;;1.20;1.03;;;24.80;81.30;;;;;;4967354;29;20456;-96
2023/07/02 00:08:23;;;;;;;1.30;0.90;;;24.70;81.10;;;;;;4962876;29;20442;-87
2023/07/02 00:10:50;;;;;;;1.50;1.20;;;24.70;81.10;;;;;;4961864;29;20460;-82
2023/07/02 00:13:17;;;;;;;1.13;0.90;;;24.70;81.20;;;;;;4964921;29;20565;-96
2023/07/02 00:15:44;;;;;;;1.27;1.17;;;24.70;81.00;;;;;;4966099;29;20463;-96
2023/07/02 00:18:16;;;;;;;1.50;1.17;;;24.70;81.10;;;;;;4966706;29;20445;-83
2023/07/02 00:20:43;;;;;;;1.50;1.37;;;24.90;81.30;;;;;;4966366;29;20446;-83
2023/07/02 00:23:11;;;;;;;1.20;1.00;;;24.70;81.10;;;;;;4967258;29;20858;-86
2023/07/02 00:25:38;;;;;;;1.20;1.10;;;24.70;81.10;;;;;;4965262;29;20442;-96
2023/07/02 00:28:05;;;;;;;1.43;1.30;;;24.70;81.10;;;;;;4963875;29;20456;-83
2023/07/02 00:30:31;;;;;;;2.40;1.10;;;24.80;81.20;;;;;;4967316;29;20528;-83
2023/07/02 00:32:58;;;;;;;1.17;0.90;;;24.70;81.10;;;;;;4965244;29;20484;-96
2023/07/02 00:35:25;;;;;;;1.13;1.00;;;24.70;81.10;;;;;;4963598;29;20452;-93
2023/07/02 00:37:52;;;;;;;1.57;1.00;;;24.70;81.00;;;;;;4965969;29;20444;-85
2023/07/02 00:40:20;;;;;;;1.10;0.83;;;24.70;81.00;;;;;;4966619;29;20514;-96
2023/07/02 00:42:46;;;;;;;1.10;0.87;;;24.70;81.10;;;;;;4966993;29;20495;-96
2023/07/02 00:45:13;;;;;;;1.20;0.90;;;24.70;81.00;;;;;;4967233;29;20448;-86
2023/07/02 00:47:40;;;;;;;1.50;1.00;;;24.70;81.00;;;;;;4968952;29;20456;-88
2023/07/02 00:50:09;;;;;;;1.10;1.00;;;24.70;81.00;;;;;;4979707;23;20493;-93
2023/07/02 00:52:36;;;;;;;2.20;1.10;;;24.70;81.00;;;;;;4973430;29;20467;-94
2023/07/02 00:55:03;;;;;;;1.87;1.00;;;24.70;81.00;;;;;;4971891;28;20464;-86
2023/07/02 00:57:32;;;;;;;1.10;1.00;;;24.70;81.10;;;;;;4955160;29;20477;-90
2023/07/02 01:00:00;;;;;;;1.10;1.00;;;24.70;81.00;;;;;;4970876;28;20444;-96
2023/07/02 01:02:29;;;;;;;1.77;1.17;;;24.70;81.00;;;;;;4971408;28;20473;-83
2023/07/02 01:04:58;;;;;;;1.13;1.00;;;24.70;81.00;;;;;;4968939;28;20521;-83
2023/07/02 01:07:25;;;;;;;2.13;1.30;;;24.70;81.00;;;;;;4971292;28;20433;-83
2023/07/02 01:09:52;;;;;;;1.33;1.00;;;24.70;81.00;;;;;;4971967;28;20485;-86
2023/07/02 01:12:21;;;;;;;1.20;1.07;;;24.70;81.00;;;;;;4966538;28;20452;-96
2023/07/02 01:14:52;;;;;;;1.40;1.10;;;24.70;81.00;;;;;;4968967;28;20452;-96
2023/07/02 01:17:20;;;;;;;1.27;1.17;;;24.70;81.00;;;;;;4968558;29;20438;-96
2023/07/02 01:19:52;;;;;;;1.10;1.00;;;24.70;81.00;;;;;;4969238;28;20446;-84
2023/07/02 01:22:19;;;;;;;1.30;1.20;;;24.70;81.00;;;;;;4969244;28;20501;-87
2023/07/02 01:24:47;;;;;;;1.30;1.20;;;24.70;81.00;;;;;;4971915;28;20507;-96
2023/07/02 01:27:15;;;;;;;1.77;1.13;;;24.70;81.00;;;;;;4952128;29;20448;-85
2023/07/02 01:29:44;;;;;;;1.10;0.97;;;24.70;81.00;;;;;;4968863;28;20430;-96
2023/07/02 01:32:11;;;;;;;1.20;1.10;;;24.70;81.10;;;;;;4964934;29;20472;-96
2023/07/02 01:34:38;;;;;;;1.40;1.00;;;24.70;81.10;;;;;;4964129;28;20440;-95
2023/07/02 01:37:07;;;;;;;1.40;1.30;;;24.70;80.90;;;;;;4969920;29;20465;-83
2023/07/02 01:39:34;;;;;;;1.30;1.10;;;24.70;81.00;;;;;;4970994;28;20803;-96
2023/07/02 01:42:09;;;;;;;1.40;1.20;;;24.70;80.90;;;;;;4970876;28;20478;-96
2023/07/02 01:44:36;;;;;;;1.30;1.20;;;24.70;81.00;;;;;;4965904;29;20440;-93
2023/07/02 01:47:03;;;;;;;1.80;1.20;;;24.70;80.90;;;;;;4965257;29;20787;-96
2023/07/02 01:49:30;;;;;;;1.20;1.10;;;24.70;80.90;;;;;;4966105;28;20806;-96
2023/07/02 01:51:57;;;;;;;1.67;1.37;;;24.70;80.90;;;;;;4966387;29;20491;-88
2023/07/02 01:54:27;;;;;;;1.90;1.30;;;24.70;80.90;;;;;;4962679;28;20454;-96
2023/07/02 01:56:54;;;;;;;1.50;1.40;;;24.70;80.90;;;;;;4965412;28;20455;-96
2023/07/02 01:59:21;;;;;;;1.30;1.10;;;24.70;80.90;;;;;;4964476;29;20449;-96
2023/07/02 02:01:48;;;;;;;1.57;1.37;;;24.70;80.90;;;;;;4964504;28;20495;-86
2023/07/02 02:04:15;;;;;;;1.50;1.00;;;24.70;80.90;;;;;;4964197;29;20452;-83
2023/07/02 02:06:42;;;;;;;1.40;1.10;;;24.70;80.90;;;;;;4970190;28;20473;-85
2023/07/02 02:09:10;;;;;;;1.23;1.13;;;24.70;80.90;;;;;;4964097;29;20446;-82
2023/07/02 02:11:40;;;;;;;1.20;1.10;;;24.70;80.90;;;;;;4965959;29;20467;-96
2023/07/02 02:14:07;;;;;;;1.20;0.90;;;24.80;81.00;;;;;;4966396;29;20448;-96
2023/07/02 02:16:34;;;;;;;1.60;1.33;;;24.70;80.80;;;;;;4964126;28;20948;-84
2023/07/02 02:19:02;;;;;;;1.13;1.03;;;24.70;80.90;;;;;;4967467;28;20481;-83
2023/07/02 02:21:29;;;;;;;1.40;1.30;;;24.80;81.80;;;;;;4961594;28;20448;-96
2023/07/02 02:23:57;;;;;;;1.40;1.20;;;24.70;80.90;;;;;;4967140;29;20446;-94
2023/07/02 02:26:25;;;;;;;1.40;1.20;;;24.70;80.90;;;;;;4967497;28;20444;-83
2023/07/02 02:28:53;;;;;;;1.20;1.10;;;24.70;80.80;;;;;;4966421;28;20453;-96
2023/07/02 02:31:20;;;;;;;1.40;0.80;;;24.70;80.80;;;;;;4966950;29;20537;-95
2023/07/02 02:33:49;;;;;;;1.70;1.30;;;24.70;80.80;;;;;;4966923;28;20452;-94
2023/07/02 02:36:17;;;;;;;1.60;1.50;;;24.70;80.80;;;;;;4966817;29;20437;-96
2023/07/02 02:38:43;;;;;;;1.37;1.20;;;24.70;80.80;;;;;;4968269;28;20448;-83
2023/07/02 02:41:10;;;;;;;1.40;1.30;;;24.70;80.80;;;;;;4970508;29;20452;-96
2023/07/02 02:43:37;;;;;;;1.60;1.30;;;24.70;80.90;;;;;;4967339;28;20496;-96
2023/07/02 02:46:05;;;;;;;1.30;1.20;;;24.70;80.70;;;;;;4969903;29;20475;-91
2023/07/02 02:48:32;;;;;;;1.90;1.50;;;24.70;80.70;;;;;;4967850;29;20539;-94
2023/07/02 02:50:59;;;;;;;1.53;1.43;;;24.70;80.70;;;;;;4967903;28;20481;-96
2023/07/02 02:53:25;;;;;;;1.30;1.20;;;24.70;81.50;;;;;;4964750;28;20454;-82
2023/07/02 02:55:53;;;;;;;1.47;1.37;;;24.70;80.70;;;;;;4968126;29;20441;-89
2023/07/02 02:58:20;;;;;;;1.30;1.20;;;24.70;80.70;;;;;;4967823;28;20456;-95
2023/07/02 03:00:48;;;;;;;1.40;1.30;;;24.70;80.70;;;;;;4969010;28;20445;-88
2023/07/02 03:03:17;;;;;;;1.60;1.40;;;24.70;80.70;;;;;;4973393;28;20496;-83
2023/07/02 03:05:47;;;;;;;1.30;1.10;;;24.70;80.70;;;;;;4973733;28;20445;-84
2023/07/02 03:08:13;;;;;;;1.93;1.53;;;24.70;80.60;;;;;;4972513;28;20449;-84
2023/07/02 03:10:40;;;;;;;1.60;1.20;;;24.70;80.60;;;;;;4972782;28;20448;-96
2023/07/02 03:13:07;;;;;;;2.23;1.70;;;24.70;80.60;;;;;;4974130;28;20449;-92
2023/07/02 03:15:34;;;;;;;1.50;1.40;;;24.70;80.50;;;;;;4972880;28;20435;-93
2023/07/02 03:18:01;;;;;;;2.13;1.40;;;24.70;80.50;;;;;;4969958;28;20425;-96
2023/07/02 03:20:29;;;;;;;2.17;1.40;;;24.70;80.50;;;;;;4968162;28;20531;-96
2023/07/02 03:22:56;;;;;;;1.60;1.50;;;24.70;80.60;;;;;;4969572;28;20509;-96
2023/07/02 03:25:22;;;;;;;1.43;1.33;;;24.70;80.60;;;;;;4967820;28;20448;-96
2023/07/02 03:27:49;;;;;;;1.40;1.30;;;24.70;80.60;;;;;;4967358;28;20446;-82
2023/07/02 03:30:16;;;;;;;1.93;1.70;;;24.80;80.60;;;;;;4968751;28;20442;-96
2023/07/02 03:32:43;;;;;;;4.07;1.77;;;24.70;80.40;;;;;;4967830;28;20458;-89
2023/07/02 03:35:09;;;;;;;2.13;1.43;;;24.70;80.50;;;;;;4972115;28;20425;-83
2023/07/02 03:37:37;;;;;;;1.50;1.10;;;24.70;80.50;;;;;;4974286;28;20455;-82
2023/07/02 03:40:05;;;;;;;1.60;1.50;;;24.70;80.50;;;;;;4971805;28;20439;-82
2023/07/02 03:42:34;;;;;;;1.83;1.60;;;24.70;80.40;;;;;;4971212;28;20553;-86
2023/07/02 03:45:00;;;;;;;2.00;1.60;;;24.70;80.40;;;;;;4971308;28;20438;-95
2023/07/02 03:47:27;;;;;;;1.77;1.63;;;24.70;80.40;;;;;;4967558;29;20444;-82
2023/07/02 03:49:54;;;;;;;1.70;1.50;;;24.70;81.20;;;;;;4967248;28;20541;-82
2023/07/02 03:52:21;;;;;;;2.13;1.80;;;24.60;80.30;;;;;;4970819;28;20453;-96
2023/07/02 03:54:49;;;;;;;1.43;1.33;;;24.70;80.40;;;;;;4973804;28;20529;-94
2023/07/02 03:57:16;;;;;;;2.00;1.80;;;24.60;80.30;;;;;;4970254;28;20452;-83
2023/07/02 03:59:43;;;;;;;2.53;1.93;;;24.60;80.30;;;;;;4973611;29;20455;-84
2023/07/02 04:02:09;;;;;;;2.00;1.80;;;24.80;80.40;;;;;;4969324;28;20476;-96
2023/07/02 04:04:36;;;;;;;2.03;1.83;;;24.60;80.10;;;;;;4969787;28;20457;-96
2023/07/02 04:07:03;;;;;;;2.10;1.90;;;24.60;80.30;;;;;;4968836;28;20455;-83
2023/07/02 04:09:32;;;;;;;2.07;1.87;;;24.70;80.40;;;;;;4992551;23;20483;-96
2023/07/02 04:12:01;;;;;;;1.50;1.40;;;24.60;80.30;;;;;;4989400;28;20448;-96
2023/07/02 04:14:27;;;;;;;2.80;2.60;;;24.70;80.50;;;;;;4990777;28;20493;-91
2023/07/02 04:16:54;;;;;;;2.50;2.30;;;24.60;80.30;;;;;;4989225;28;20451;-96
2023/07/02 04:19:21;;;;;;;2.77;2.20;;;24.60;80.30;;;;;;4987738;28;20449;-90
2023/07/02 04:21:48;;;;;;;1.90;1.80;;;24.70;80.40;;;;;;4985805;28;20451;-94
2023/07/02 04:24:14;;;;;;;2.23;2.03;;;24.60;81.10;;;;;;4986686;28;20995;-83
2023/07/02 04:26:42;;;;;;;2.50;2.13;;;24.70;80.40;;;;;;4983621;28;20444;-96
2023/07/02 04:29:11;;;;;;;2.13;1.93;;;24.60;80.30;;;;;;4985209;28;20442;-96
2023/07/02 04:31:37;;;;;;;1.90;1.70;;;24.80;80.50;;;;;;4982832;28;20468;-82
2023/07/02 04:34:05;;;;;;;2.53;2.30;;;24.60;80.30;;;;;;4982322;28;20454;-86
2023/07/02 04:36:32;;;;;;;2.60;2.40;;;24.60;80.30;;;;;;4984364;28;20441;-93
2023/07/02 04:38:59;;;;;;;2.40;2.10;;;24.60;80.30;;;;;;4983255;28;20440;-83
2023/07/02 04:41:27;;;;;;;2.33;2.13;;;24.60;80.20;;;;;;4984215;28;20448;-83
2023/07/02 04:43:54;;;;;;;2.60;2.37;;;24.60;80.30;;;;;;4982512;28;20529;-95
2023/07/02 04:46:22;;;;;;;2.20;2.00;;;24.60;80.30;;;;;;4983817;28;20523;-96
2023/07/02 04:48:49;;;;;;;3.40;2.37;;;24.60;80.20;;;;;;4985676;28;20448;-96
2023/07/02 04:51:15;;;;;;;2.10;1.80;;;24.60;80.30;;;;;;4983292;28;20443;-83
2023/07/02 04:53:42;;;;;;;2.57;2.37;;;24.60;80.30;;;;;;4982650;28;20468;-96
2023/07/02 04:56:09;;;;;;;2.33;2.13;;;24.60;80.30;;;;;;4984169;28;20436;-96
2023/07/02 04:58:36;;;;;;;2.07;1.93;;;24.60;80.30;;;;;;4986223;28;20454;-91
2023/07/02 05:01:02;;;;;;;2.37;2.17;;;24.60;80.30;;;;;;4984123;28;20451;-96
2023/07/02 05:03:31;;;;;;;3.83;2.10;;;24.60;80.20;;;;;;4983074;28;20494;-96
2023/07/02 05:05:57;;;;;;;2.80;2.60;;;24.60;80.10;;;;;;4984371;28;20451;-95
2023/07/02 05:08:24;;;;;;;2.57;2.10;;;24.60;80.10;;;;;;4981096;28;20579;-96
2023/07/02 05:10:51;;;;;;;3.20;2.90;;;24.60;80.20;;;;;;4982650;28;20444;-96
2023/07/02 05:13:18;;;;;;;3.13;2.77;;;24.80;80.40;;;;;;4985359;28;20470;-90
2023/07/02 05:15:44;;;;;;;2.50;2.30;;;24.60;80.10;;;;;;4971485;28;20445;-82
2023/07/02 05:18:11;;;;;;;2.37;2.20;;;24.60;80.10;;;;;;4992233;28;20444;-83
2023/07/02 05:20:39;;;;;;;2.67;2.30;;;24.60;80.10;;;;;;4991315;28;20428;-83
2023/07/02 05:23:06;;;;;;;2.43;2.17;;;24.60;80.10;;;;;;4989875;28;20495;-83
2023/07/02 05:25:33;;;;;;;2.63;2.43;;;24.80;80.30;;;;;;4983486;28;20438;-96
2023/07/02 05:28:00;;;;;;;2.27;2.07;;;24.60;80.10;;;;;;4982793;28;20456;-95
2023/07/02 05:30:27;;;;;;;4.03;2.80;;;24.60;80.00;;;;;;4983934;28;20449;-87
2023/07/02 05:32:54;;;;;;;2.60;2.40;;;24.60;80.10;;;;;;4980897;28;20543;-91
2023/07/02 05:35:20;;;;;;;2.63;2.40;;;24.60;80.00;;;;;;4982231;28;20457;-96
2023/07/02 05:37:48;;;;;;;2.80;2.40;;;24.60;80.00;;;;;;4982139;28;20452;-96
2023/07/02 05:40:15;;;;;;;2.40;2.20;;;24.60;80.00;;;;;;4987461;28;20808;-86
2023/07/02 05:42:43;;;;;;;3.33;2.60;;;24.60;80.80;;;;;;4989375;28;20446;-96
2023/07/02 05:45:11;;;;;;;2.93;2.73;;;24.60;79.90;;;;;;4987369;28;20444;-96
2023/07/02 05:47:38;;;;;;;4.43;2.93;;;24.60;80.00;;;;;;4983867;28;20444;-83
2023/07/02 05:50:05;;;;;;;2.60;2.40;;;24.60;80.00;;;;;;4987719;28;20495;-84
2023/07/02 05:52:32;;;;;;;3.23;2.70;;;24.60;80.00;;;;;;4988660;28;20450;-97
2023/07/02 05:55:00;;;;;;;3.10;2.80;;;24.70;80.10;;;;;;4985468;28;20463;-83
2023/07/02 05:57:27;;;;;;;3.90;3.10;;;24.70;80.10;;;;;;4985052;28;20535;-96
2023/07/02 05:59:54;;;;;;;3.37;3.07;;;24.70;80.10;;;;;;4988522;28;20447;-91
2023/07/02 06:02:21;;;;;;;3.00;2.70;;;24.70;80.10;;;;;;4989358;28;20464;-96
2023/07/02 06:04:47;;;;;;;3.27;2.97;;;24.70;80.00;;;;;;4989010;28;20501;-96
2023/07/02 06:07:14;;;;;;;3.00;2.70;;;24.70;80.00;;;;;;4990067;28;20472;-84
2023/07/02 06:09:41;;;;;;;2.97;2.67;;;24.70;80.10;;;;;;4993456;28;20508;-96
2023/07/02 06:12:09;;;;;;;3.53;2.30;;;24.70;80.00;;;;;;4989495;28;20452;-83
2023/07/02 06:14:36;;;;;;;3.70;3.40;;;24.70;80.00;;;;;;4994637;23;20440;-88
2023/07/02 06:17:05;;;;;;;3.50;3.20;;;24.70;80.00;;;;;;4939643;29;20882;-83
2023/07/02 06:19:32;;;;;;;3.50;3.20;;;24.70;79.90;;;;;;4963677;23;20444;-85
2023/07/02 06:21:59;;;;;;;3.63;3.33;;;24.70;79.90;;;;;;4972501;29;20468;-90
2023/07/02 06:24:25;;;;;;;3.40;3.10;;;24.70;79.90;;;;;;4973431;29;20492;-94
2023/07/02 06:26:52;;;;;;;4.00;3.53;;;24.70;79.90;;;;;;4969440;29;20449;-96
2023/07/02 06:29:22;;;;;;;3.33;3.00;;;24.70;79.90;;;;;;4987176;23;20488;-91
2023/07/02 06:31:48;;;;;;;3.80;3.17;;;24.70;79.80;;;;;;4989676;28;20481;-82
2023/07/02 06:34:15;;;;;;;3.30;3.10;;;24.70;79.70;;;;;;4989810;28;20444;-88
2023/07/02 06:36:42;;;;;;;3.17;2.90;;;24.70;79.80;;;;;;4984025;28;20449;-96
2023/07/02 06:39:09;;;;;;;4.13;3.73;;;24.70;79.70;;;;;;4986134;28;20440;-85
2023/07/02 06:41:37;;;;;;;3.80;3.50;;;24.90;79.90;;;;;;4985559;28;20448;-94
2023/07/02 06:44:04;;;;;;;3.57;3.27;;;24.70;79.60;;;;;;4986344;28;20492;-96
2023/07/02 06:46:32;;;;;;;4.30;3.83;;;24.70;79.50;;;;;;4985525;28;20450;-96
2023/07/02 06:48:59;;;;;;;4.13;3.27;;;24.70;79.50;;;;;;4985171;28;20465;-82
2023/07/02 06:51:27;;;;;;;3.90;3.50;;;24.70;79.50;;;;;;4986328;28;20561;-96
2023/07/02 06:53:53;;;;;;;5.13;3.70;;;24.70;79.50;;;;;;4984958;28;20504;-82
2023/07/02 06:58:50;;;;;;;4.53;3.30;;;24.70;79.40;;;;;;4965656;29;20483;-82
2023/07/02 07:01:17;;;;;;;3.83;3.53;;;24.70;79.30;;;;;;4960792;28;20472;-95
2023/07/02 07:03:45;;;;;;;4.23;3.93;;;24.70;79.30;;;;;;4962541;29;20488;-89
2023/07/02 07:06:12;;;;;;;8.30;5.70;;;24.70;79.40;;;;;;4963599;29;20457;-93
2023/07/02 07:08:39;;;;;;;11.73;6.83;;;24.70;77.80;;;;;;4960182;28;20456;-83
2023/07/02 07:11:06;;;;;;;16.30;7.70;;;24.70;76.70;;;;;;4959176;29;20452;-83
2023/07/02 07:13:33;;;;;;;11.70;8.30;;;24.70;75.90;;;;;;4963041;29;20466;-84
2023/07/02 07:15:59;;;;;;;8.33;7.47;;;24.70;75.90;;;;;;4969889;29;21016;-92
2023/07/02 07:18:26;;;;;;;18.47;8.87;;;24.70;75.50;;;;;;4968152;29;20449;-96
2023/07/02 07:20:55;;;;;;;16.10;8.23;;;24.70;75.20;;;;;;4963987;29;20458;-82
2023/07/02 07:23:22;;;;;;;10.80;7.10;;;24.70;74.10;;;;;;4962702;29;20571;-96
2023/07/02 07:25:49;;;;;;;10.83;6.57;;;24.60;74.40;;;;;;4961049;29;20522;-83
2023/07/02 07:28:16;;;;;;;9.70;7.00;;;24.60;74.40;;;;;;4959148;29;20457;-95
2023/07/02 07:30:43;;;;;;;13.27;7.67;;;24.60;74.40;;;;;;4958304;28;20514;-82
2023/07/02 07:33:10;;;;;;;12.07;7.47;;;24.60;73.00;;;;;;4958273;29;20938;-83
2023/07/02 07:35:37;;;;;;;11.10;7.50;;;24.60;72.20;;;;;;4958334;29;20967;-96
2023/07/02 07:38:05;;;;;;;12.17;7.20;;;24.60;71.20;;;;;;4958486;29;20449;-93
2023/07/02 07:40:32;;;;;;;16.07;8.53;;;24.60;70.80;;;;;;4959198;29;20518;-96
2023/07/02 07:42:59;;;;;;;11.63;8.20;;;24.70;71.10;;;;;;4959105;29;20449;-83
2023/07/02 07:45:26;;;;;;;12.37;8.43;;;24.70;70.10;;;;;;4960197;29;20494;-84
2023/07/02 07:47:52;;;;;;;13.03;7.50;;;24.70;70.00;;;;;;4959309;29;20942;-83
2023/07/02 07:50:19;;;;;;;13.57;8.23;;;24.70;69.90;;;;;;4961797;29;20536;-96
2023/07/02 07:52:46;;;;;;;10.73;7.50;;;24.70;70.40;;;;;;4961268;29;20532;-83
2023/07/02 07:55:14;;;;;;;13.63;7.47;;;24.70;70.80;;;;;;4958999;29;20441;-82
2023/07/02 07:57:41;;;;;;;13.23;7.80;;;24.70;72.00;;;;;;4961365;29;20489;-89
2023/07/02 08:00:11;;;;;;;15.87;8.23;;;24.70;70.30;;;;;;4958303;29;20442;-83
2023/07/02 08:02:37;;;;;;;11.10;8.10;;;24.70;69.50;;;;;;4958450;29;20454;-83
2023/07/02 08:05:06;;;;;;;13.47;7.80;;;24.70;69.00;;;;;;4959971;29;20488;-83
2023/07/02 08:07:34;;;;;;;8.07;6.60;;;24.60;68.40;;;;;;4958884;29;20453;-82
2023/07/02 08:10:02;;;;;;;13.10;8.27;;;24.60;68.20;;;;;;4958975;29;20536;-82
2023/07/02 08:12:30;;;;;;;10.60;7.27;;;24.60;68.10;;;;;;4965815;28;20547;-82
2023/07/02 08:14:57;;;;;;;13.60;6.87;;;24.60;67.70;;;;;;4960027;29;20449;-83
2023/07/02 08:17:26;;;;;;;11.47;7.33;;;24.60;67.10;;;;;;4958957;29;20951;-81
2023/07/02 08:19:53;;;;;;;11.00;7.80;;;24.60;67.50;;;;;;4957813;28;20451;-81
2023/07/02 08:22:20;;;;;;;11.03;7.00;;;24.60;66.90;;;;;;4958903;29;20450;-82
2023/07/02 08:24:49;;;;;;;12.30;6.97;;;24.60;66.70;;;;;;4958653;29;20857;-96
2023/07/02 08:27:18;;;;;;;15.10;8.23;;;24.60;65.90;;;;;;4959745;29;20452;-82
2023/07/02 08:29:47;;;;;;;14.20;8.50;;;24.60;65.20;;;;;;4945674;29;20447;-83
2023/07/02 08:32:15;;;;;;;15.60;8.40;;;24.50;65.30;;;;;;4948700;29;20541;-88
2023/07/02 08:34:42;;;;;;;11.40;7.60;;;24.50;65.60;;;;;;4964368;29;20437;-84
2023/07/02 08:37:09;;;;;;;12.63;8.07;;;24.40;65.70;;;;;;4956133;29;20457;-82
2023/07/02 08:39:37;;;;;;;12.07;7.47;;;24.40;66.70;;;;;;4956251;29;20447;-84
2023/07/02 08:42:04;;;;;;;10.30;7.50;;;24.40;66.70;;;;;;4957749;29;20504;-85
2023/07/02 08:44:31;;;;;;;11.93;8.03;;;24.40;67.00;;;;;;4958263;29;20484;-83
2023/07/02 08:47:00;;;;;;;15.67;7.90;;;24.40;67.30;;;;;;4941861;29;20473;-84
2023/07/02 08:49:27;;;;;;;8.30;6.73;;;24.40;67.20;;;;;;4937829;29;20981;-88
2023/07/02 08:51:54;;;;;;;10.50;7.00;;;24.30;67.50;;;;;;4936955;29;20457;-88
